createdAt,value
2023-04-15T00:01:06.079Z,6.70
2023-04-15T00:03:34.729Z,6.70
2023-04-15T00:06:02.554Z,6.70
2023-04-15T00:08:30.267Z,6.80
2023-04-15T00:10:59.539Z,6.80
2023-04-15T00:13:26.419Z,6.80
2023-04-15T00:15:53.431Z,6.90
2023-04-15T00:18:20.375Z,6.90
2023-04-15T00:20:47.273Z,6.90
2023-04-15T00:23:14.139Z,6.90
2023-04-15T00:25:41.142Z,7.00
2023-04-15T00:28:08.687Z,7.00
2023-04-15T00:30:35.652Z,7.00
2023-04-15T00:33:02.633Z,7.00
2023-04-15T00:35:32.684Z,7.10
2023-04-15T00:38:00.003Z,7.20
2023-04-15T00:40:27.941Z,7.30
2023-04-15T00:42:55.185Z,7.30
2023-04-15T00:45:22.255Z,7.30
2023-04-15T00:47:49.331Z,7.40
2023-04-15T00:50:16.208Z,7.40
2023-04-15T00:52:43.098Z,7.50
2023-04-15T00:55:10.307Z,7.50
2023-04-15T00:57:38.002Z,7.40
2023-04-15T01:00:08.136Z,7.40
2023-04-15T01:02:36.910Z,7.50
2023-04-15T01:05:04.740Z,7.40
2023-04-15T01:07:32.206Z,7.50
2023-04-15T01:09:59.399Z,7.50
2023-04-15T01:12:27.736Z,7.50
2023-04-15T01:14:55.588Z,7.60
2023-04-15T01:17:23.103Z,7.60
2023-04-15T01:19:50.275Z,7.70
2023-04-15T01:22:17.801Z,7.70
2023-04-15T01:24:57.136Z,7.70
2023-04-15T01:27:24.930Z,7.70
2023-04-15T01:29:52.050Z,7.70
2023-04-15T01:32:19.415Z,7.60
2023-04-15T01:34:46.854Z,7.60
2023-04-15T01:37:13.900Z,7.60
2023-04-15T01:39:41.237Z,7.60
2023-04-15T01:42:08.518Z,7.60
2023-04-15T01:44:35.716Z,7.50
2023-04-15T01:47:02.618Z,7.50
2023-04-15T01:49:29.550Z,7.50
2023-04-15T01:51:56.393Z,7.60
2023-04-15T01:54:23.381Z,7.60
2023-04-15T01:56:50.220Z,7.60
2023-04-15T01:59:17.078Z,7.70
2023-04-15T02:01:45.251Z,7.70
2023-04-15T02:04:16.990Z,7.80
2023-04-15T02:06:44.355Z,7.80
2023-04-15T02:09:11.298Z,7.80
2023-04-15T02:11:39.323Z,7.80
2023-04-15T02:14:06.521Z,7.80
2023-04-15T02:16:34.075Z,7.80
2023-04-15T02:19:01.498Z,7.80
2023-04-15T02:21:28.704Z,7.90
2023-04-15T02:23:56.032Z,7.90
2023-04-15T02:26:23.315Z,7.90
2023-04-15T02:28:51.470Z,7.80
2023-04-15T02:31:18.551Z,7.90
2023-04-15T02:33:45.674Z,7.90
2023-04-15T02:36:12.647Z,7.90
2023-04-15T02:38:42.414Z,7.90
2023-04-15T02:41:10.652Z,7.80
2023-04-15T02:43:38.160Z,7.90
2023-04-15T02:46:05.320Z,7.90
2023-04-15T02:48:32.363Z,7.90
2023-04-15T02:51:15.596Z,7.80
2023-04-15T02:53:42.987Z,7.80
2023-04-15T02:56:10.020Z,7.80
2023-04-15T02:58:36.954Z,7.90
2023-04-15T03:01:03.936Z,7.80
2023-04-15T03:03:30.978Z,7.80
2023-04-15T03:05:58.046Z,7.70
2023-04-15T03:08:25.093Z,7.60
2023-04-15T03:10:53.100Z,7.60
2023-04-15T03:13:20.255Z,7.60
2023-04-15T03:15:48.322Z,7.70
2023-04-15T03:18:15.650Z,7.70
2023-04-15T03:20:42.734Z,7.80
2023-04-15T03:23:09.593Z,7.80
2023-04-15T03:25:37.553Z,7.80
2023-04-15T03:28:04.614Z,7.80
2023-04-15T03:30:31.627Z,7.80
2023-04-15T03:32:58.818Z,7.70
2023-04-15T03:35:25.749Z,7.70
2023-04-15T03:37:52.671Z,7.60
2023-04-15T03:40:22.465Z,7.60
2023-04-15T03:42:49.349Z,7.70
2023-04-15T03:45:16.581Z,7.70
2023-04-15T03:47:43.594Z,7.80
2023-04-15T03:50:11.109Z,7.80
2023-04-15T03:52:38.221Z,7.80
2023-04-15T03:55:05.390Z,7.80
2023-04-15T03:57:32.361Z,7.80
2023-04-15T03:59:59.216Z,7.80
2023-04-15T04:02:26.537Z,7.80
2023-04-15T04:04:54.011Z,7.80
2023-04-15T04:07:20.960Z,7.80
2023-04-15T04:09:47.896Z,7.80
2023-04-15T04:12:14.885Z,7.80
2023-04-15T04:14:42.097Z,7.80
2023-04-15T04:17:09.318Z,7.80
2023-04-15T04:19:36.409Z,7.90
2023-04-15T04:22:03.353Z,7.90
2023-04-15T04:24:30.261Z,8.00
2023-04-15T04:26:57.390Z,8.00
2023-04-15T04:29:24.417Z,8.00
2023-04-15T04:31:51.340Z,8.10
2023-04-15T04:34:18.340Z,8.20
2023-04-15T04:36:45.261Z,8.40
2023-04-15T04:39:12.263Z,8.60
2023-04-15T04:41:39.125Z,8.70
2023-04-15T04:44:06.014Z,8.70
2023-04-15T04:46:32.929Z,9.10
2023-04-15T04:48:59.853Z,9.00
2023-04-15T04:51:26.905Z,9.40
2023-04-15T04:53:54.466Z,9.80
2023-04-15T04:56:21.449Z,9.70
2023-04-15T04:58:48.328Z,9.40
2023-04-15T05:01:15.317Z,9.10
2023-04-15T05:03:42.463Z,8.90
2023-04-15T05:06:09.585Z,8.90
2023-04-15T05:08:39.136Z,8.90
2023-04-15T05:11:07.440Z,8.90
2023-04-15T05:13:34.362Z,8.90
2023-04-15T05:16:01.556Z,8.90
2023-04-15T05:18:29.226Z,8.80
2023-04-15T05:20:56.158Z,8.80
2023-04-15T05:23:23.099Z,8.80
2023-04-15T05:25:50.410Z,8.80
2023-04-15T05:28:17.255Z,8.90
2023-04-15T05:30:44.244Z,8.80
2023-04-15T05:33:11.421Z,9.20
2023-04-15T05:35:38.314Z,9.70
2023-04-15T05:38:05.217Z,9.80
2023-04-15T05:40:32.159Z,10.20
2023-04-15T05:42:59.081Z,10.70
2023-04-15T05:45:26.328Z,11.10
2023-04-15T05:47:54.440Z,11.20
2023-04-15T05:50:21.508Z,10.90
2023-04-15T05:52:48.445Z,10.40
2023-04-15T05:55:15.321Z,9.90
2023-04-15T05:57:42.362Z,9.70
2023-04-15T06:00:10.265Z,9.70
2023-04-15T06:02:37.383Z,9.70
2023-04-15T06:05:09.831Z,9.70
2023-04-15T06:07:37.582Z,9.60
2023-04-15T06:10:05.890Z,9.30
2023-04-15T06:12:33.006Z,9.30
2023-04-15T06:15:00.353Z,9.30
2023-04-15T06:17:27.493Z,9.10
2023-04-15T06:19:55.919Z,9.00
2023-04-15T06:22:23.676Z,8.90
2023-04-15T06:24:51.683Z,9.00
2023-04-15T06:27:19.081Z,9.20
2023-04-15T06:29:46.340Z,9.40
2023-04-15T06:32:13.380Z,9.40
2023-04-15T06:34:40.405Z,9.40
2023-04-15T06:37:07.393Z,9.40
2023-04-15T06:39:34.363Z,9.60
2023-04-15T06:42:01.689Z,9.90
2023-04-15T06:44:29.295Z,10.30
2023-04-15T06:46:56.769Z,10.80
2023-04-15T06:49:23.716Z,10.80
2023-04-15T06:51:51.680Z,10.90
2023-04-15T06:54:18.781Z,11.10
2023-04-15T06:56:45.717Z,11.70
2023-04-15T06:59:13.017Z,11.60
2023-04-15T07:01:41.382Z,11.60
2023-04-15T07:04:08.361Z,12.00
2023-04-15T07:06:35.827Z,12.40
2023-04-15T07:09:04.863Z,12.40
2023-04-15T07:11:32.068Z,12.70
2023-04-15T07:13:59.079Z,12.80
2023-04-15T07:16:27.848Z,12.80
2023-04-15T07:18:56.281Z,13.00
2023-04-15T07:21:24.149Z,13.80
2023-04-15T07:23:51.119Z,14.40
2023-04-15T07:26:17.989Z,14.30
2023-04-15T07:28:46.468Z,14.60
2023-04-15T07:31:13.841Z,15.00
2023-04-15T07:33:40.854Z,15.30
2023-04-15T07:36:08.014Z,15.50
2023-04-15T07:38:34.930Z,15.10
2023-04-15T07:41:01.928Z,14.50
2023-04-15T07:43:29.185Z,13.90
2023-04-15T07:45:56.077Z,13.90
2023-04-15T07:48:22.986Z,14.40
2023-04-15T07:50:49.886Z,14.90
2023-04-15T07:53:16.783Z,15.00
2023-04-15T07:55:43.686Z,15.10
2023-04-15T07:58:10.598Z,15.80
2023-04-15T08:00:38.607Z,15.80
2023-04-15T08:03:05.636Z,15.90
2023-04-15T08:05:33.191Z,16.40
2023-04-15T08:08:00.045Z,16.70
2023-04-15T08:10:27.380Z,17.10
2023-04-15T08:12:55.123Z,17.30
2023-04-15T08:15:22.396Z,17.70
2023-04-15T08:17:49.300Z,17.70
2023-04-15T08:20:16.265Z,17.70
2023-04-15T08:22:43.186Z,17.70
2023-04-15T08:25:10.516Z,17.60
2023-04-15T08:27:37.681Z,17.60
2023-04-15T08:30:05.322Z,17.60
2023-04-15T08:32:32.526Z,17.40
2023-04-15T08:34:59.386Z,17.40
2023-04-15T08:37:26.972Z,17.60
2023-04-15T08:39:53.897Z,17.60
2023-04-15T08:42:31.414Z,17.60
2023-04-15T08:45:01.783Z,18.20
2023-04-15T08:47:34.563Z,18.20
2023-04-15T08:50:04.455Z,17.30
2023-04-15T08:52:32.314Z,16.50
2023-04-15T08:55:02.293Z,15.90
2023-04-15T08:57:29.490Z,15.10
2023-04-15T08:59:57.564Z,14.40
2023-04-15T09:02:26.574Z,14.20
2023-04-15T09:04:53.917Z,14.10
2023-04-15T09:07:20.818Z,14.40
2023-04-15T09:09:49.084Z,14.90
2023-04-15T09:12:17.313Z,15.90
2023-04-15T09:14:47.503Z,16.50
2023-04-15T09:17:18.561Z,16.80
2023-04-15T09:19:45.456Z,16.80
2023-04-15T09:22:12.783Z,16.80
2023-04-15T09:24:42.334Z,16.90
2023-04-15T09:27:09.655Z,17.10
2023-04-15T09:29:37.345Z,17.40
2023-04-15T09:32:16.547Z,17.80
2023-04-15T09:34:43.733Z,17.60
2023-04-15T09:37:24.273Z,16.90
2023-04-15T09:39:58.405Z,16.20
2023-04-15T09:42:26.978Z,16.00
2023-04-15T09:44:54.258Z,15.90
2023-04-15T09:47:28.932Z,15.60
2023-04-15T09:49:57.614Z,15.40
2023-04-15T09:52:24.612Z,15.50
2023-04-15T09:54:55.911Z,15.70
2023-04-15T09:57:23.905Z,15.70
2023-04-15T09:59:51.606Z,15.50
2023-04-15T10:02:23.542Z,15.20
2023-04-15T10:04:52.399Z,15.30
2023-04-15T10:07:22.503Z,15.40
2023-04-15T10:09:49.835Z,15.60
2023-04-15T10:12:20.356Z,15.50
2023-04-15T10:14:59.492Z,15.10
2023-04-15T10:17:35.361Z,14.60
2023-04-15T10:20:04.868Z,14.40
2023-04-15T10:22:33.234Z,14.40
2023-04-15T10:25:01.217Z,14.40
2023-04-15T10:27:29.197Z,14.20
2023-04-15T10:29:57.573Z,14.00
2023-04-15T10:32:26.460Z,14.00
2023-04-15T10:34:55.064Z,14.00
2023-04-15T10:37:23.613Z,14.00
2023-04-15T10:39:50.879Z,14.00
2023-04-15T10:42:20.186Z,13.90
2023-04-15T10:44:51.987Z,13.70
2023-04-15T10:47:21.638Z,13.90
2023-04-15T10:49:58.107Z,14.20
2023-04-15T10:52:28.058Z,14.30
2023-04-15T10:55:12.748Z,14.10
2023-04-15T10:57:41.275Z,14.00
2023-04-15T11:00:16.813Z,14.20
2023-04-15T11:02:44.033Z,14.40
2023-04-15T11:05:12.471Z,14.30
2023-04-15T11:07:54.255Z,14.20
2023-04-15T11:10:21.312Z,14.20
2023-04-15T11:12:58.484Z,14.40
2023-04-15T11:15:45.258Z,14.60
2023-04-15T11:18:17.988Z,14.70
2023-04-15T11:20:54.591Z,14.70
2023-04-15T11:23:39.888Z,14.40
2023-04-15T11:26:15.539Z,14.20
2023-04-15T11:28:45.308Z,14.00
2023-04-15T11:31:18.098Z,13.90
2023-04-15T11:33:46.361Z,13.90
2023-04-15T11:36:13.927Z,14.00
2023-04-15T11:38:45.018Z,14.20
2023-04-15T11:41:12.006Z,14.30
2023-04-15T11:43:38.890Z,14.10
2023-04-15T11:46:06.094Z,14.00
2023-04-15T11:48:35.867Z,13.80
2023-04-15T11:51:07.066Z,13.80
2023-04-15T11:53:43.008Z,13.70
2023-04-15T11:56:11.715Z,13.70
2023-04-15T11:58:39.476Z,13.90
2023-04-15T12:01:07.509Z,13.90
2023-04-15T12:03:48.426Z,13.80
2023-04-15T12:06:23.754Z,13.60
2023-04-15T12:08:59.266Z,13.60
2023-04-15T12:11:45.525Z,13.80
2023-04-15T12:14:22.438Z,13.70
2023-04-15T12:16:54.048Z,13.70
2023-04-15T12:19:30.147Z,13.60
2023-04-15T12:22:02.682Z,13.60
2023-04-15T12:24:32.894Z,13.70
2023-04-15T12:27:04.278Z,14.00
2023-04-15T12:29:32.038Z,14.10
2023-04-15T12:32:09.533Z,14.20
2023-04-15T12:34:38.811Z,14.10
2023-04-15T12:37:07.928Z,13.80
2023-04-15T12:39:42.985Z,13.80
2023-04-15T12:42:10.955Z,13.70
2023-04-15T12:44:39.097Z,13.60
2023-04-15T12:47:08.042Z,13.60
2023-04-15T12:49:35.154Z,13.50
2023-04-15T12:52:02.785Z,13.30
2023-04-15T12:54:30.967Z,13.20
2023-04-15T12:56:59.288Z,13.30
2023-04-15T12:59:26.241Z,13.40
2023-04-15T13:01:54.153Z,13.30
2023-04-15T13:04:22.088Z,13.30
2023-04-15T13:06:49.540Z,13.30
2023-04-15T13:09:16.421Z,13.20
2023-04-15T13:11:43.436Z,13.30
2023-04-15T13:14:14.205Z,13.30
2023-04-15T13:16:41.598Z,13.50
2023-04-15T13:19:08.709Z,13.80
2023-04-15T13:21:36.422Z,13.80
2023-04-15T13:24:04.872Z,13.80
2023-04-15T13:26:32.272Z,13.70
2023-04-15T13:28:59.524Z,13.60
2023-04-15T13:31:27.372Z,13.70
2023-04-15T13:33:54.475Z,13.60
2023-04-15T13:36:21.597Z,13.50
2023-04-15T13:38:50.942Z,13.40
2023-04-15T13:41:18.235Z,13.40
2023-04-15T13:43:45.127Z,13.40
2023-04-15T13:46:12.186Z,13.30
2023-04-15T13:48:39.289Z,13.40
2023-04-15T13:51:06.456Z,13.40
2023-04-15T13:53:39.163Z,13.20
2023-04-15T13:56:08.744Z,13.10
2023-04-15T13:58:37.654Z,13.20
2023-04-15T14:01:06.983Z,13.30
2023-04-15T14:03:38.326Z,13.30
2023-04-15T14:06:06.571Z,13.30
2023-04-15T14:08:33.983Z,13.30
2023-04-15T14:11:01.349Z,13.10
2023-04-15T14:13:28.412Z,13.10
2023-04-15T14:15:56.872Z,13.20
2023-04-15T14:18:23.830Z,13.20
2023-04-15T14:20:50.738Z,13.20
2023-04-15T14:23:17.723Z,13.20
2023-04-15T14:25:46.745Z,13.20
2023-04-15T14:28:15.706Z,13.10
2023-04-15T14:30:43.035Z,12.90
2023-04-15T14:33:10.086Z,13.00
2023-04-15T14:35:38.286Z,13.00
2023-04-15T14:38:06.255Z,13.00
2023-04-15T14:40:34.195Z,13.10
2023-04-15T14:43:01.127Z,13.10
2023-04-15T14:45:30.708Z,13.10
2023-04-15T14:47:57.719Z,13.00
2023-04-15T14:50:24.680Z,12.90
2023-04-15T14:52:51.579Z,12.80
2023-04-15T14:55:18.788Z,12.80
2023-04-15T14:57:45.730Z,12.80
2023-04-15T15:00:16.052Z,12.90
2023-04-15T15:02:43.908Z,13.00
2023-04-15T15:05:12.170Z,13.00
2023-04-15T15:07:41.192Z,13.10
2023-04-15T15:10:09.069Z,13.10
2023-04-15T15:12:36.364Z,13.00
2023-04-15T15:15:12.324Z,13.00
2023-04-15T15:17:46.943Z,13.10
2023-04-15T15:20:13.960Z,13.10
2023-04-15T15:22:41.052Z,13.10
2023-04-15T15:25:08.412Z,13.20
2023-04-15T15:27:38.147Z,13.20
2023-04-15T15:30:06.951Z,13.10
2023-04-15T15:32:34.023Z,13.10
2023-04-15T15:35:01.044Z,13.10
2023-04-15T15:37:28.323Z,13.00
2023-04-15T15:39:55.277Z,12.80
2023-04-15T15:42:23.268Z,12.60
2023-04-15T15:44:52.814Z,12.60
2023-04-15T15:47:21.423Z,12.60
2023-04-15T15:49:48.396Z,12.60
2023-04-15T15:52:15.844Z,12.60
2023-04-15T15:54:43.164Z,12.60
2023-04-15T15:57:10.761Z,12.50
2023-04-15T15:59:41.269Z,12.50
2023-04-15T16:02:14.115Z,12.50
2023-04-15T16:04:43.311Z,12.50
2023-04-15T16:07:12.060Z,12.60
2023-04-15T16:09:41.187Z,12.60
2023-04-15T16:12:08.136Z,12.60
2023-04-15T16:14:35.169Z,12.50
2023-04-15T16:17:02.189Z,12.40
2023-04-15T16:19:29.256Z,12.40
2023-04-15T16:21:56.218Z,12.30
2023-04-15T16:24:23.254Z,12.30
2023-04-15T16:26:50.757Z,12.30
2023-04-15T16:29:17.668Z,12.30
2023-04-15T16:31:44.872Z,12.20
2023-04-15T16:34:12.124Z,12.20
2023-04-15T16:36:41.017Z,12.20
2023-04-15T16:39:08.422Z,12.20
2023-04-15T16:41:35.902Z,12.20
2023-04-15T16:44:03.447Z,12.20
2023-04-15T16:46:31.136Z,12.20
2023-04-15T16:48:58.212Z,12.30
2023-04-15T16:51:25.485Z,12.20
2023-04-15T16:53:52.463Z,12.20
2023-04-15T16:56:19.930Z,12.00
2023-04-15T16:58:48.623Z,12.00
2023-04-15T17:01:16.189Z,12.00
2023-04-15T17:03:43.354Z,11.90
2023-04-15T17:06:10.581Z,11.80
2023-04-15T17:08:37.920Z,11.80
2023-04-15T17:11:04.889Z,11.80
2023-04-15T17:13:31.858Z,11.80
2023-04-15T17:15:59.342Z,11.70
2023-04-15T17:18:26.769Z,11.70
2023-04-15T17:20:55.002Z,11.60
2023-04-15T17:23:21.984Z,11.40
2023-04-15T17:25:49.258Z,11.30
2023-04-15T17:28:16.183Z,11.30
2023-04-15T17:30:43.527Z,11.40
2023-04-15T17:34:00.068Z,11.40
2023-04-15T17:35:58.526Z,11.40
2023-04-15T17:38:25.514Z,11.40
2023-04-15T17:40:52.672Z,11.30
2023-04-15T17:43:20.353Z,11.30
2023-04-15T17:45:48.090Z,11.30
2023-04-15T17:48:15.034Z,11.30
2023-04-15T17:50:42.502Z,11.30
2023-04-15T17:53:09.929Z,11.20
2023-04-15T17:55:37.326Z,11.10
2023-04-15T17:58:05.292Z,11.10
2023-04-15T18:00:35.857Z,11.00
2023-04-15T18:03:03.465Z,11.00
2023-04-15T18:05:30.954Z,11.00
2023-04-15T18:07:57.991Z,10.90
2023-04-15T18:10:25.310Z,10.80
2023-04-15T18:12:52.975Z,10.80
2023-04-15T18:15:20.126Z,10.80
2023-04-15T18:17:50.197Z,10.70
2023-04-15T18:20:19.940Z,10.70
2023-04-15T18:22:47.982Z,10.70
2023-04-15T18:25:15.117Z,10.70
2023-04-15T18:27:42.868Z,10.60
2023-04-15T18:30:13.272Z,10.50
2023-04-15T18:32:41.503Z,10.40
2023-04-15T18:35:12.087Z,10.40
2023-04-15T18:37:39.220Z,10.40
2023-04-15T18:40:08.086Z,10.40
2023-04-15T18:42:35.909Z,10.30
2023-04-15T18:45:03.472Z,10.30
2023-04-15T18:47:31.024Z,10.30
2023-04-15T18:49:58.975Z,10.20
2023-04-15T18:52:26.860Z,10.20
2023-04-15T18:54:54.374Z,10.20
2023-04-15T18:57:24.554Z,10.20
2023-04-15T19:00:02.653Z,10.20
2023-04-15T19:02:30.275Z,10.10
2023-04-15T19:04:57.851Z,10.10
2023-04-15T19:07:25.450Z,10.20
2023-04-15T19:09:53.990Z,10.20
2023-04-15T19:12:21.112Z,10.20
2023-04-15T19:14:48.655Z,10.20
2023-04-15T19:17:16.469Z,10.20
2023-04-15T19:19:45.421Z,10.10
2023-04-15T19:22:13.403Z,10.20
2023-04-15T19:24:41.035Z,10.20
2023-04-15T19:27:08.550Z,10.20
2023-04-15T19:29:36.303Z,10.20
2023-04-15T19:32:03.551Z,10.20
2023-04-15T19:34:31.389Z,10.20
2023-04-15T19:36:58.913Z,10.20
2023-04-15T19:39:26.715Z,10.10
2023-04-15T19:41:55.760Z,10.10
2023-04-15T19:44:23.151Z,10.00
2023-04-15T19:46:52.138Z,10.00
2023-04-15T19:49:20.383Z,10.00
2023-04-15T19:51:50.731Z,10.00
2023-04-15T19:54:19.803Z,10.00
2023-04-15T19:56:47.559Z,9.90
2023-04-15T19:59:15.431Z,9.90
2023-04-15T20:01:43.093Z,9.90
2023-04-15T20:04:11.056Z,9.80
2023-04-15T20:06:38.849Z,9.80
2023-04-15T20:09:08.284Z,9.80
2023-04-15T20:12:45.691Z,9.80
2023-04-15T20:14:25.617Z,9.80
2023-04-15T20:16:53.125Z,9.80
2023-04-15T20:19:20.638Z,9.70
2023-04-15T20:21:49.085Z,9.80
2023-04-15T20:24:18.326Z,9.80
2023-04-15T20:26:45.827Z,9.80
2023-04-15T20:29:15.085Z,9.80
2023-04-15T20:31:42.723Z,9.70
2023-04-15T20:34:12.107Z,9.70
2023-04-15T20:36:39.424Z,9.60
2023-04-15T20:39:08.333Z,9.60
2023-04-15T20:41:36.058Z,9.60
2023-04-15T20:44:03.609Z,9.60
2023-04-15T20:46:30.712Z,9.60
2023-04-15T20:48:58.140Z,9.70
2023-04-15T20:51:25.301Z,9.80
2023-04-15T20:53:52.487Z,9.80
2023-04-15T20:56:20.536Z,9.70
2023-04-15T20:58:47.813Z,9.70
2023-04-15T21:01:15.320Z,9.70
2023-04-15T21:03:42.468Z,9.70
2023-04-15T21:06:09.500Z,9.60
2023-04-15T21:08:36.734Z,9.60
2023-04-15T21:11:03.777Z,9.70
2023-04-15T21:13:30.828Z,9.70
2023-04-15T21:15:57.708Z,9.60
2023-04-15T21:18:24.654Z,9.60
2023-04-15T21:21:01.439Z,9.60
2023-04-15T21:23:29.896Z,9.50
2023-04-15T21:25:57.686Z,9.50
2023-04-15T21:28:24.834Z,9.40
2023-04-15T21:30:51.841Z,9.40
2023-04-15T21:33:20.432Z,9.40
2023-04-15T21:35:47.356Z,9.30
2023-04-15T21:38:14.530Z,9.30
2023-04-15T21:40:41.575Z,9.30
2023-04-15T21:43:08.964Z,9.30
2023-04-15T21:45:38.718Z,9.30
2023-04-15T21:48:08.136Z,9.20
2023-04-15T21:50:38.630Z,9.20
2023-04-15T21:53:08.185Z,9.20
2023-04-15T21:55:35.753Z,9.20
2023-04-15T21:58:02.700Z,9.20
2023-04-15T22:00:29.667Z,9.10
2023-04-15T22:02:56.735Z,9.10
2023-04-15T22:05:25.422Z,9.10
2023-04-15T22:07:52.362Z,9.00
2023-04-15T22:10:19.635Z,9.00
2023-04-15T22:12:46.556Z,8.90
2023-04-15T22:15:13.463Z,8.90
2023-04-15T22:17:40.440Z,8.90
2023-04-15T22:20:08.280Z,8.90
2023-04-15T22:22:43.570Z,8.80
2023-04-15T22:25:11.901Z,8.80
2023-04-15T22:27:38.807Z,8.80
2023-04-15T22:30:06.566Z,8.80
2023-04-15T22:32:33.596Z,8.80
2023-04-15T22:35:01.526Z,8.90
2023-04-15T22:37:31.457Z,8.90
2023-04-15T22:39:58.619Z,8.90
2023-04-15T22:42:25.762Z,8.80
2023-04-15T22:44:52.714Z,8.80
2023-04-15T22:47:19.837Z,8.90
2023-04-15T22:49:46.986Z,8.90
2023-04-15T22:52:23.403Z,8.90
2023-04-15T22:54:56.788Z,8.90
2023-04-15T22:57:23.788Z,8.90
2023-04-15T22:59:51.017Z,8.90
2023-04-15T23:02:18.126Z,8.80
2023-04-15T23:04:45.554Z,8.80
2023-04-15T23:07:15.666Z,8.80
2023-04-15T23:09:42.570Z,8.90
2023-04-15T23:12:09.642Z,8.80
2023-04-15T23:14:36.620Z,8.80
2023-04-15T23:17:03.592Z,8.80
2023-04-15T23:19:30.770Z,8.80
2023-04-15T23:21:57.738Z,8.80
2023-04-15T23:24:24.610Z,8.70
2023-04-15T23:26:53.181Z,8.80
2023-04-15T23:29:20.213Z,8.70
2023-04-15T23:31:47.430Z,8.70
2023-04-15T23:34:14.535Z,8.70
2023-04-15T23:36:41.445Z,8.70
2023-04-15T23:39:08.719Z,8.70
2023-04-15T23:41:36.783Z,8.70
2023-04-15T23:44:03.745Z,8.70
2023-04-15T23:46:31.126Z,8.70
2023-04-15T23:48:58.052Z,8.70
2023-04-15T23:51:24.964Z,8.70
2023-04-15T23:53:52.485Z,8.70
2023-04-15T23:56:19.376Z,8.70
2023-04-15T23:58:46.271Z,8.70
